sensor_id;sensor_type;location;lat;lon;timestamp;temperature;humidity
30174;DHT22;16985;50.814;8.530;2022-08-21T00:01:54;18.20;83.20
30174;DHT22;16985;50.814;8.530;2022-08-21T00:04:19;18.10;83.50
30174;DHT22;16985;50.814;8.530;2022-08-21T00:06:46;18.10;83.60
30174;DHT22;16985;50.814;8.530;2022-08-21T00:09:12;18.00;83.80
30174;DHT22;16985;50.814;8.530;2022-08-21T00:11:39;18.00;83.90
30174;DHT22;16985;50.814;8.530;2022-08-21T00:14:06;18.00;84.00
30174;DHT22;16985;50.814;8.530;2022-08-21T00:16:33;17.90;84.20
30174;DHT22;16985;50.814;8.530;2022-08-21T00:19:00;17.90;84.60
30174;DHT22;16985;50.814;8.530;2022-08-21T00:21:26;17.80;84.80
30174;DHT22;16985;50.814;8.530;2022-08-21T00:23:52;17.80;85.00
30174;DHT22;16985;50.814;8.530;2022-08-21T00:26:18;17.80;84.90
30174;DHT22;16985;50.814;8.530;2022-08-21T00:28:44;17.80;85.20
30174;DHT22;16985;50.814;8.530;2022-08-21T00:31:11;17.70;85.10
30174;DHT22;16985;50.814;8.530;2022-08-21T00:33:38;17.70;85.00
30174;DHT22;16985;50.814;8.530;2022-08-21T00:36:04;17.70;85.00
30174;DHT22;16985;50.814;8.530;2022-08-21T00:38:30;17.70;85.30
30174;DHT22;16985;50.814;8.530;2022-08-21T00:40:59;17.60;85.40
30174;DHT22;16985;50.814;8.530;2022-08-21T00:43:33;17.50;85.50
30174;DHT22;16985;50.814;8.530;2022-08-21T00:46:01;17.50;86.00
30174;DHT22;16985;50.814;8.530;2022-08-21T00:48:27;17.40;86.00
30174;DHT22;16985;50.814;8.530;2022-08-21T00:51:07;17.40;86.00
30174;DHT22;16985;50.814;8.530;2022-08-21T00:53:38;17.30;85.90
30174;DHT22;16985;50.814;8.530;2022-08-21T00:56:07;17.20;86.20
30174;DHT22;16985;50.814;8.530;2022-08-21T00:58:36;17.20;86.50
30174;DHT22;16985;50.814;8.530;2022-08-21T01:01:04;17.20;86.90
30174;DHT22;16985;50.814;8.530;2022-08-21T01:03:32;17.10;87.10
30174;DHT22;16985;50.814;8.530;2022-08-21T01:05:59;17.10;87.10
30174;DHT22;16985;50.814;8.530;2022-08-21T01:08:25;17.00;87.50
30174;DHT22;16985;50.814;8.530;2022-08-21T01:10:52;17.00;87.70
30174;DHT22;16985;50.814;8.530;2022-08-21T01:13:24;16.90;87.70
30174;DHT22;16985;50.814;8.530;2022-08-21T01:15:54;16.90;87.90
30174;DHT22;16985;50.814;8.530;2022-08-21T01:18:21;16.90;87.40
30174;DHT22;16985;50.814;8.530;2022-08-21T01:21:14;16.80;87.60
30174;DHT22;16985;50.814;8.530;2022-08-21T01:23:45;16.80;87.80
30174;DHT22;16985;50.814;8.530;2022-08-21T01:26:13;16.70;88.00
30174;DHT22;16985;50.814;8.530;2022-08-21T01:28:54;16.70;88.10
30174;DHT22;16985;50.814;8.530;2022-08-21T01:31:25;16.60;88.00
30174;DHT22;16985;50.814;8.530;2022-08-21T01:33:52;16.60;88.50
30174;DHT22;16985;50.814;8.530;2022-08-21T01:36:19;16.50;88.50
30174;DHT22;16985;50.814;8.530;2022-08-21T01:38:45;16.50;88.70
30174;DHT22;16985;50.814;8.530;2022-08-21T01:41:13;16.60;89.00
30174;DHT22;16985;50.814;8.530;2022-08-21T01:43:40;16.50;89.00
30174;DHT22;16985;50.814;8.530;2022-08-21T01:46:07;16.40;89.30
30174;DHT22;16985;50.814;8.530;2022-08-21T01:48:33;16.40;89.30
30174;DHT22;16985;50.814;8.530;2022-08-21T01:50:59;16.30;89.50
30174;DHT22;16985;50.814;8.530;2022-08-21T01:53:25;16.30;89.40
30174;DHT22;16985;50.814;8.530;2022-08-21T01:55:51;16.30;89.80
30174;DHT22;16985;50.814;8.530;2022-08-21T01:58:17;16.30;90.00
30174;DHT22;16985;50.814;8.530;2022-08-21T02:00:43;16.30;90.20
30174;DHT22;16985;50.814;8.530;2022-08-21T02:03:09;16.20;90.10
30174;DHT22;16985;50.814;8.530;2022-08-21T02:05:34;16.20;90.30
30174;DHT22;16985;50.814;8.530;2022-08-21T02:08:01;16.10;90.40
30174;DHT22;16985;50.814;8.530;2022-08-21T02:10:30;16.10;90.40
30174;DHT22;16985;50.814;8.530;2022-08-21T02:12:58;16.10;90.50
30174;DHT22;16985;50.814;8.530;2022-08-21T02:15:26;16.00;90.30
30174;DHT22;16985;50.814;8.530;2022-08-21T02:17:59;16.00;90.20
30174;DHT22;16985;50.814;8.530;2022-08-21T02:20:31;16.00;90.20
30174;DHT22;16985;50.814;8.530;2022-08-21T02:23:00;15.90;90.30
30174;DHT22;16985;50.814;8.530;2022-08-21T02:25:27;15.90;90.30
30174;DHT22;16985;50.814;8.530;2022-08-21T02:27:53;15.80;90.50
30174;DHT22;16985;50.814;8.530;2022-08-21T02:30:26;15.80;90.50
30174;DHT22;16985;50.814;8.530;2022-08-21T02:32:53;15.80;90.60
30174;DHT22;16985;50.814;8.530;2022-08-21T02:35:20;15.70;90.50
30174;DHT22;16985;50.814;8.530;2022-08-21T02:37:56;15.70;90.50
30174;DHT22;16985;50.814;8.530;2022-08-21T02:40:27;15.70;90.70
30174;DHT22;16985;50.814;8.530;2022-08-21T02:42:57;15.60;91.00
30174;DHT22;16985;50.814;8.530;2022-08-21T02:45:23;15.60;90.90
30174;DHT22;16985;50.814;8.530;2022-08-21T02:47:59;15.60;91.00
30174;DHT22;16985;50.814;8.530;2022-08-21T02:50:33;15.60;91.20
30174;DHT22;16985;50.814;8.530;2022-08-21T02:53:02;15.50;91.20
30174;DHT22;16985;50.814;8.530;2022-08-21T02:55:30;15.50;91.20
30174;DHT22;16985;50.814;8.530;2022-08-21T02:57:57;15.50;91.20
30174;DHT22;16985;50.814;8.530;2022-08-21T03:00:25;15.40;91.20
30174;DHT22;16985;50.814;8.530;2022-08-21T03:02:52;15.40;91.40
30174;DHT22;16985;50.814;8.530;2022-08-21T03:05:19;15.40;91.40
30174;DHT22;16985;50.814;8.530;2022-08-21T03:07:45;15.30;91.40
30174;DHT22;16985;50.814;8.530;2022-08-21T03:10:13;15.30;91.30
30174;DHT22;16985;50.814;8.530;2022-08-21T03:12:40;15.30;91.30
30174;DHT22;16985;50.814;8.530;2022-08-21T03:15:08;15.20;91.30
30174;DHT22;16985;50.814;8.530;2022-08-21T03:17:35;15.20;91.20
30174;DHT22;16985;50.814;8.530;2022-08-21T03:20:03;15.10;91.30
30174;DHT22;16985;50.814;8.530;2022-08-21T03:22:30;15.10;91.40
30174;DHT22;16985;50.814;8.530;2022-08-21T03:24:57;15.10;91.50
30174;DHT22;16985;50.814;8.530;2022-08-21T03:27:24;15.10;91.40
30174;DHT22;16985;50.814;8.530;2022-08-21T03:29:52;15.00;91.50
30174;DHT22;16985;50.814;8.530;2022-08-21T03:32:18;15.00;91.40
30174;DHT22;16985;50.814;8.530;2022-08-21T03:34:45;14.90;91.40
30174;DHT22;16985;50.814;8.530;2022-08-21T03:37:12;14.90;91.40
30174;DHT22;16985;50.814;8.530;2022-08-21T03:39:39;14.90;91.50
30174;DHT22;16985;50.814;8.530;2022-08-21T03:42:06;14.90;91.90
30174;DHT22;16985;50.814;8.530;2022-08-21T03:44:32;14.80;92.00
30174;DHT22;16985;50.814;8.530;2022-08-21T03:46:58;14.80;92.00
30174;DHT22;16985;50.814;8.530;2022-08-21T03:49:25;14.80;92.10
30174;DHT22;16985;50.814;8.530;2022-08-21T03:51:51;14.80;92.20
30174;DHT22;16985;50.814;8.530;2022-08-21T03:54:17;14.80;92.30
30174;DHT22;16985;50.814;8.530;2022-08-21T03:56:43;14.70;92.20
30174;DHT22;16985;50.814;8.530;2022-08-21T03:59:09;14.70;92.30
30174;DHT22;16985;50.814;8.530;2022-08-21T04:01:35;14.70;92.30
30174;DHT22;16985;50.814;8.530;2022-08-21T04:04:02;14.70;92.30
30174;DHT22;16985;50.814;8.530;2022-08-21T04:06:29;14.60;92.20
30174;DHT22;16985;50.814;8.530;2022-08-21T04:08:55;14.60;92.10
30174;DHT22;16985;50.814;8.530;2022-08-21T04:11:21;14.50;92.20
30174;DHT22;16985;50.814;8.530;2022-08-21T04:13:48;14.50;92.30
30174;DHT22;16985;50.814;8.530;2022-08-21T04:16:14;14.50;92.30
30174;DHT22;16985;50.814;8.530;2022-08-21T04:18:41;14.50;92.40
30174;DHT22;16985;50.814;8.530;2022-08-21T04:21:09;14.50;92.40
30174;DHT22;16985;50.814;8.530;2022-08-21T04:23:36;14.50;92.40
30174;DHT22;16985;50.814;8.530;2022-08-21T04:26:02;14.40;92.40
30174;DHT22;16985;50.814;8.530;2022-08-21T04:28:28;14.40;92.50
30174;DHT22;16985;50.814;8.530;2022-08-21T04:30:55;14.40;92.40
30174;DHT22;16985;50.814;8.530;2022-08-21T04:33:22;14.30;92.30
30174;DHT22;16985;50.814;8.530;2022-08-21T04:35:48;14.30;92.40
30174;DHT22;16985;50.814;8.530;2022-08-21T04:38:14;14.30;92.30
30174;DHT22;16985;50.814;8.530;2022-08-21T04:40:40;14.20;92.40
30174;DHT22;16985;50.814;8.530;2022-08-21T04:43:09;14.20;92.60
30174;DHT22;16985;50.814;8.530;2022-08-21T04:45:41;14.20;92.60
30174;DHT22;16985;50.814;8.530;2022-08-21T04:48:12;14.10;92.80
30174;DHT22;16985;50.814;8.530;2022-08-21T04:50:56;14.20;93.00
30174;DHT22;16985;50.814;8.530;2022-08-21T04:55:56;14.20;93.20
30174;DHT22;16985;50.814;8.530;2022-08-21T04:58:29;14.10;93.20
30174;DHT22;16985;50.814;8.530;2022-08-21T05:01:00;14.20;93.10
30174;DHT22;16985;50.814;8.530;2022-08-21T05:03:27;14.10;92.70
30174;DHT22;16985;50.814;8.530;2022-08-21T05:05:56;14.20;92.70
30174;DHT22;16985;50.814;8.530;2022-08-21T05:08:24;14.10;92.80
30174;DHT22;16985;50.814;8.530;2022-08-21T05:10:50;14.10;93.00
30174;DHT22;16985;50.814;8.530;2022-08-21T05:13:17;14.10;93.20
30174;DHT22;16985;50.814;8.530;2022-08-21T05:15:43;14.10;93.40
30174;DHT22;16985;50.814;8.530;2022-08-21T05:18:09;14.10;93.50
30174;DHT22;16985;50.814;8.530;2022-08-21T05:20:35;14.10;93.60
30174;DHT22;16985;50.814;8.530;2022-08-21T05:23:08;14.10;93.60
30174;DHT22;16985;50.814;8.530;2022-08-21T05:25:35;14.10;93.70
30174;DHT22;16985;50.814;8.530;2022-08-21T05:28:02;14.10;93.90
30174;DHT22;16985;50.814;8.530;2022-08-21T05:30:28;14.10;94.00
30174;DHT22;16985;50.814;8.530;2022-08-21T05:32:59;14.10;94.40
30174;DHT22;16985;50.814;8.530;2022-08-21T05:35:27;14.20;94.30
30174;DHT22;16985;50.814;8.530;2022-08-21T05:37:53;14.20;94.30
30174;DHT22;16985;50.814;8.530;2022-08-21T05:40:19;14.20;94.20
30174;DHT22;16985;50.814;8.530;2022-08-21T05:42:45;14.30;94.20
30174;DHT22;16985;50.814;8.530;2022-08-21T05:45:11;14.30;93.80
30174;DHT22;16985;50.814;8.530;2022-08-21T05:47:37;14.40;94.40
30174;DHT22;16985;50.814;8.530;2022-08-21T05:50:03;14.50;95.00
30174;DHT22;16985;50.814;8.530;2022-08-21T05:52:29;14.60;95.30
30174;DHT22;16985;50.814;8.530;2022-08-21T05:54:55;14.60;95.30
30174;DHT22;16985;50.814;8.530;2022-08-21T05:57:21;14.60;95.40
30174;DHT22;16985;50.814;8.530;2022-08-21T05:59:48;14.70;95.70
30174;DHT22;16985;50.814;8.530;2022-08-21T06:02:17;14.70;95.50
30174;DHT22;16985;50.814;8.530;2022-08-21T06:04:44;14.70;95.80
30174;DHT22;16985;50.814;8.530;2022-08-21T06:07:10;14.80;95.80
30174;DHT22;16985;50.814;8.530;2022-08-21T06:09:36;14.80;96.20
30174;DHT22;16985;50.814;8.530;2022-08-21T06:12:11;14.80;96.40
30174;DHT22;16985;50.814;8.530;2022-08-21T06:14:39;14.90;96.30
30174;DHT22;16985;50.814;8.530;2022-08-21T06:17:07;15.00;96.60
30174;DHT22;16985;50.814;8.530;2022-08-21T06:19:35;15.00;96.20
30174;DHT22;16985;50.814;8.530;2022-08-21T06:22:02;15.00;96.10
30174;DHT22;16985;50.814;8.530;2022-08-21T06:24:27;15.00;96.20
30174;DHT22;16985;50.814;8.530;2022-08-21T06:26:54;15.10;96.40
30174;DHT22;16985;50.814;8.530;2022-08-21T06:29:20;15.10;96.40
30174;DHT22;16985;50.814;8.530;2022-08-21T06:31:48;15.10;96.40
30174;DHT22;16985;50.814;8.530;2022-08-21T06:34:15;15.20;96.30
30174;DHT22;16985;50.814;8.530;2022-08-21T06:36:41;15.20;96.50
30174;DHT22;16985;50.814;8.530;2022-08-21T06:39:07;15.30;96.70
30174;DHT22;16985;50.814;8.530;2022-08-21T06:41:33;15.30;96.50
30174;DHT22;16985;50.814;8.530;2022-08-21T06:43:59;15.40;96.60
30174;DHT22;16985;50.814;8.530;2022-08-21T06:46:26;15.40;96.40
30174;DHT22;16985;50.814;8.530;2022-08-21T06:48:55;15.50;96.70
30174;DHT22;16985;50.814;8.530;2022-08-21T06:51:21;15.50;96.60
30174;DHT22;16985;50.814;8.530;2022-08-21T06:53:48;15.50;96.40
30174;DHT22;16985;50.814;8.530;2022-08-21T06:56:15;15.50;96.10
30174;DHT22;16985;50.814;8.530;2022-08-21T06:58:40;15.60;96.30
30174;DHT22;16985;50.814;8.530;2022-08-21T07:01:06;15.70;96.00
30174;DHT22;16985;50.814;8.530;2022-08-21T07:03:35;15.80;96.10
30174;DHT22;16985;50.814;8.530;2022-08-21T07:06:05;15.70;96.20
30174;DHT22;16985;50.814;8.530;2022-08-21T07:08:32;15.80;96.40
30174;DHT22;16985;50.814;8.530;2022-08-21T07:11:02;15.90;96.80
30174;DHT22;16985;50.814;8.530;2022-08-21T07:13:33;15.90;96.70
30174;DHT22;16985;50.814;8.530;2022-08-21T07:15:58;16.00;97.00
30174;DHT22;16985;50.814;8.530;2022-08-21T07:18:24;16.10;97.30
30174;DHT22;16985;50.814;8.530;2022-08-21T07:20:50;16.10;97.10
30174;DHT22;16985;50.814;8.530;2022-08-21T07:23:22;16.20;97.20
30174;DHT22;16985;50.814;8.530;2022-08-21T07:25:51;16.30;97.80
30174;DHT22;16985;50.814;8.530;2022-08-21T07:28:17;16.40;97.70
30174;DHT22;16985;50.814;8.530;2022-08-21T07:30:43;16.50;97.50
30174;DHT22;16985;50.814;8.530;2022-08-21T07:33:09;16.50;97.00
30174;DHT22;16985;50.814;8.530;2022-08-21T07:35:36;16.70;97.00
30174;DHT22;16985;50.814;8.530;2022-08-21T07:38:01;16.80;97.30
30174;DHT22;16985;50.814;8.530;2022-08-21T07:40:27;16.80;97.20
30174;DHT22;16985;50.814;8.530;2022-08-21T07:42:53;16.90;97.30
30174;DHT22;16985;50.814;8.530;2022-08-21T07:45:21;17.00;97.30
30174;DHT22;16985;50.814;8.530;2022-08-21T07:47:50;17.10;97.20
30174;DHT22;16985;50.814;8.530;2022-08-21T07:50:17;17.20;96.90
30174;DHT22;16985;50.814;8.530;2022-08-21T07:52:43;17.30;96.70
30174;DHT22;16985;50.814;8.530;2022-08-21T07:55:11;17.40;96.50
30174;DHT22;16985;50.814;8.530;2022-08-21T07:57:39;17.50;95.70
30174;DHT22;16985;50.814;8.530;2022-08-21T08:00:08;17.70;95.10
30174;DHT22;16985;50.814;8.530;2022-08-21T08:02:40;17.80;94.70
30174;DHT22;16985;50.814;8.530;2022-08-21T08:05:10;18.00;94.20
30174;DHT22;16985;50.814;8.530;2022-08-21T08:07:37;18.10;93.60
30174;DHT22;16985;50.814;8.530;2022-08-21T08:10:04;18.20;93.00
30174;DHT22;16985;50.814;8.530;2022-08-21T08:12:33;18.30;92.60
30174;DHT22;16985;50.814;8.530;2022-08-21T08:15:00;18.40;92.30
30174;DHT22;16985;50.814;8.530;2022-08-21T08:17:27;18.50;92.10
30174;DHT22;16985;50.814;8.530;2022-08-21T08:19:53;18.60;91.90
30174;DHT22;16985;50.814;8.530;2022-08-21T08:22:21;18.60;91.60
30174;DHT22;16985;50.814;8.530;2022-08-21T08:24:51;18.70;91.40
30174;DHT22;16985;50.814;8.530;2022-08-21T08:27:17;18.90;91.20
30174;DHT22;16985;50.814;8.530;2022-08-21T08:29:44;19.00;90.80
30174;DHT22;16985;50.814;8.530;2022-08-21T08:32:10;19.20;90.20
30174;DHT22;16985;50.814;8.530;2022-08-21T08:34:37;19.40;89.50
30174;DHT22;16985;50.814;8.530;2022-08-21T08:37:06;19.50;88.00
30174;DHT22;16985;50.814;8.530;2022-08-21T08:39:33;19.60;85.70
30174;DHT22;16985;50.814;8.530;2022-08-21T08:42:13;19.80;83.90
30174;DHT22;16985;50.814;8.530;2022-08-21T08:44:56;19.90;83.10
30174;DHT22;16985;50.814;8.530;2022-08-21T08:47:25;20.10;82.40
30174;DHT22;16985;50.814;8.530;2022-08-21T08:53:04;20.50;80.70
30174;DHT22;16985;50.814;8.530;2022-08-21T08:55:40;20.70;79.50
30174;DHT22;16985;50.814;8.530;2022-08-21T08:58:22;20.70;78.80
30174;DHT22;16985;50.814;8.530;2022-08-21T09:00:51;20.80;78.10
30174;DHT22;16985;50.814;8.530;2022-08-21T09:03:18;20.90;77.70
30174;DHT22;16985;50.814;8.530;2022-08-21T09:05:55;20.90;77.30
30174;DHT22;16985;50.814;8.530;2022-08-21T09:08:34;20.90;76.70
30174;DHT22;16985;50.814;8.530;2022-08-21T09:17:13;21.20;74.10
30174;DHT22;16985;50.814;8.530;2022-08-21T09:24:02;21.50;72.20
30174;DHT22;16985;50.814;8.530;2022-08-21T09:26:24;21.70;71.50
30174;DHT22;16985;50.814;8.530;2022-08-21T09:28:56;21.90;71.40
30174;DHT22;16985;50.814;8.530;2022-08-21T09:31:34;22.10;70.40
30174;DHT22;16985;50.814;8.530;2022-08-21T09:34:09;22.30;69.70
30174;DHT22;16985;50.814;8.530;2022-08-21T09:36:41;22.50;68.80
30174;DHT22;16985;50.814;8.530;2022-08-21T09:39:11;22.50;67.10
30174;DHT22;16985;50.814;8.530;2022-08-21T09:41:39;22.50;66.30
30174;DHT22;16985;50.814;8.530;2022-08-21T09:44:07;22.70;65.90
30174;DHT22;16985;50.814;8.530;2022-08-21T09:46:33;22.80;64.70
30174;DHT22;16985;50.814;8.530;2022-08-21T09:49:02;22.90;63.50
30174;DHT22;16985;50.814;8.530;2022-08-21T09:51:34;23.00;63.60
30174;DHT22;16985;50.814;8.530;2022-08-21T09:56:51;23.30;62.30
30174;DHT22;16985;50.814;8.530;2022-08-21T09:59:39;23.40;61.90
30174;DHT22;16985;50.814;8.530;2022-08-21T10:04:59;23.90;59.50
30174;DHT22;16985;50.814;8.530;2022-08-21T10:07:29;24.10;59.40
30174;DHT22;16985;50.814;8.530;2022-08-21T10:10:07;24.20;59.10
30174;DHT22;16985;50.814;8.530;2022-08-21T10:12:56;24.40;58.10
30174;DHT22;16985;50.814;8.530;2022-08-21T10:18:39;24.70;57.60
30174;DHT22;16985;50.814;8.530;2022-08-21T10:26:52;25.30;55.80
30174;DHT22;16985;50.814;8.530;2022-08-21T10:35:25;25.80;54.60
30174;DHT22;16985;50.814;8.530;2022-08-21T10:46:47;26.60;53.00
30174;DHT22;16985;50.814;8.530;2022-08-21T10:54:33;27.10;51.40
30174;DHT22;16985;50.814;8.530;2022-08-21T10:57:12;27.20;50.70
30174;DHT22;16985;50.814;8.530;2022-08-21T10:59:49;27.30;49.60
30174;DHT22;16985;50.814;8.530;2022-08-21T11:02:41;27.50;49.20
30174;DHT22;16985;50.814;8.530;2022-08-21T11:08:15;27.80;49.10
30174;DHT22;16985;50.814;8.530;2022-08-21T11:10:59;27.90;49.40
30174;DHT22;16985;50.814;8.530;2022-08-21T11:13:49;28.00;49.60
30174;DHT22;16985;50.814;8.530;2022-08-21T11:16:41;28.10;49.60
30174;DHT22;16985;50.814;8.530;2022-08-21T11:19:24;28.10;49.50
30174;DHT22;16985;50.814;8.530;2022-08-21T11:24:49;28.40;47.80
30174;DHT22;16985;50.814;8.530;2022-08-21T11:27:26;28.60;48.40
30174;DHT22;16985;50.814;8.530;2022-08-21T11:29:57;28.60;47.70
30174;DHT22;16985;50.814;8.530;2022-08-21T11:32:53;28.60;47.00
30174;DHT22;16985;50.814;8.530;2022-08-21T11:35:48;28.60;47.10
30174;DHT22;16985;50.814;8.530;2022-08-21T11:38:41;28.70;46.50
30174;DHT22;16985;50.814;8.530;2022-08-21T11:41:32;28.70;46.70
30174;DHT22;16985;50.814;8.530;2022-08-21T11:50:17;28.90;47.10
30174;DHT22;16985;50.814;8.530;2022-08-21T11:52:48;28.90;47.30
30174;DHT22;16985;50.814;8.530;2022-08-21T11:58:09;29.10;46.60
30174;DHT22;16985;50.814;8.530;2022-08-21T12:01:07;29.10;46.10
30174;DHT22;16985;50.814;8.530;2022-08-21T12:04:22;29.10;46.30
30174;DHT22;16985;50.814;8.530;2022-08-21T12:06:35;29.20;46.40
30174;DHT22;16985;50.814;8.530;2022-08-21T12:09:08;29.20;46.20
30174;DHT22;16985;50.814;8.530;2022-08-21T12:12:03;29.20;46.20
30174;DHT22;16985;50.814;8.530;2022-08-21T12:14:44;29.20;46.20
30174;DHT22;16985;50.814;8.530;2022-08-21T12:17:26;29.10;45.40
30174;DHT22;16985;50.814;8.530;2022-08-21T12:22:54;29.10;45.40
30174;DHT22;16985;50.814;8.530;2022-08-21T12:25:36;29.20;44.90
30174;DHT22;16985;50.814;8.530;2022-08-21T12:28:12;29.20;44.70
30174;DHT22;16985;50.814;8.530;2022-08-21T12:30:43;29.30;43.80
30174;DHT22;16985;50.814;8.530;2022-08-21T12:36:11;29.20;43.80
30174;DHT22;16985;50.814;8.530;2022-08-21T12:38:54;29.30;43.50
30174;DHT22;16985;50.814;8.530;2022-08-21T12:41:36;29.30;43.90
30174;DHT22;16985;50.814;8.530;2022-08-21T12:44:14;29.40;44.30
30174;DHT22;16985;50.814;8.530;2022-08-21T12:47:44;29.40;44.80
30174;DHT22;16985;50.814;8.530;2022-08-21T12:53:25;29.80;44.10
30174;DHT22;16985;50.814;8.530;2022-08-21T12:55:56;30.00;44.00
30174;DHT22;16985;50.814;8.530;2022-08-21T12:58:26;30.10;43.40
30174;DHT22;16985;50.814;8.530;2022-08-21T13:03:37;30.20;44.10
30174;DHT22;16985;50.814;8.530;2022-08-21T13:06:04;30.20;44.10
30174;DHT22;16985;50.814;8.530;2022-08-21T13:08:33;30.10;43.90
30174;DHT22;16985;50.814;8.530;2022-08-21T13:11:04;30.10;44.30
30174;DHT22;16985;50.814;8.530;2022-08-21T13:13:31;30.10;44.20
30174;DHT22;16985;50.814;8.530;2022-08-21T13:16:04;30.00;44.00
30174;DHT22;16985;50.814;8.530;2022-08-21T13:18:33;29.90;43.90
30174;DHT22;16985;50.814;8.530;2022-08-21T13:21:11;29.90;44.10
30174;DHT22;16985;50.814;8.530;2022-08-21T13:23:39;30.10;44.30
30174;DHT22;16985;50.814;8.530;2022-08-21T13:26:17;30.00;43.90
30174;DHT22;16985;50.814;8.530;2022-08-21T13:28:45;30.00;43.90
30174;DHT22;16985;50.814;8.530;2022-08-21T13:31:18;29.90;43.50
30174;DHT22;16985;50.814;8.530;2022-08-21T13:33:48;29.90;43.80
30174;DHT22;16985;50.814;8.530;2022-08-21T13:36:20;30.00;43.90
30174;DHT22;16985;50.814;8.530;2022-08-21T13:38:51;30.10;44.00
30174;DHT22;16985;50.814;8.530;2022-08-21T13:41:25;30.10;43.70
30174;DHT22;16985;50.814;8.530;2022-08-21T13:44:04;30.20;43.80
30174;DHT22;16985;50.814;8.530;2022-08-21T13:46:42;30.20;43.50
30174;DHT22;16985;50.814;8.530;2022-08-21T13:49:10;30.10;43.40
30174;DHT22;16985;50.814;8.530;2022-08-21T13:51:39;30.10;43.40
30174;DHT22;16985;50.814;8.530;2022-08-21T13:54:22;29.90;43.40
30174;DHT22;16985;50.814;8.530;2022-08-21T13:56:51;29.80;43.10
30174;DHT22;16985;50.814;8.530;2022-08-21T13:59:26;29.70;43.30
30174;DHT22;16985;50.814;8.530;2022-08-21T14:02:17;29.80;43.80
30174;DHT22;16985;50.814;8.530;2022-08-21T14:04:53;29.80;44.00
30174;DHT22;16985;50.814;8.530;2022-08-21T14:07:33;30.00;44.10
30174;DHT22;16985;50.814;8.530;2022-08-21T14:10:26;30.10;43.60
30174;DHT22;16985;50.814;8.530;2022-08-21T14:13:01;30.10;43.60
30174;DHT22;16985;50.814;8.530;2022-08-21T14:15:31;30.10;43.70
30174;DHT22;16985;50.814;8.530;2022-08-21T14:18:09;30.00;43.40
30174;DHT22;16985;50.814;8.530;2022-08-21T14:20:39;29.90;43.40
30174;DHT22;16985;50.814;8.530;2022-08-21T14:23:05;29.80;43.30
30174;DHT22;16985;50.814;8.530;2022-08-21T14:25:40;29.70;43.30
30174;DHT22;16985;50.814;8.530;2022-08-21T14:28:38;29.50;43.60
30174;DHT22;16985;50.814;8.530;2022-08-21T14:31:18;29.30;43.60
30174;DHT22;16985;50.814;8.530;2022-08-21T14:33:45;29.10;43.90
30174;DHT22;16985;50.814;8.530;2022-08-21T14:36:11;28.90;44.10
30174;DHT22;16985;50.814;8.530;2022-08-21T14:38:39;28.80;44.30
30174;DHT22;16985;50.814;8.530;2022-08-21T14:41:18;28.60;44.40
30174;DHT22;16985;50.814;8.530;2022-08-21T14:43:48;28.70;44.70
30174;DHT22;16985;50.814;8.530;2022-08-21T14:46:20;28.70;44.90
30174;DHT22;16985;50.814;8.530;2022-08-21T14:48:48;28.70;45.10
30174;DHT22;16985;50.814;8.530;2022-08-21T14:51:15;28.70;44.90
30174;DHT22;16985;50.814;8.530;2022-08-21T14:53:40;28.70;44.90
30174;DHT22;16985;50.814;8.530;2022-08-21T14:56:06;28.70;45.00
30174;DHT22;16985;50.814;8.530;2022-08-21T14:58:35;28.60;45.00
30174;DHT22;16985;50.814;8.530;2022-08-21T15:01:05;28.60;45.00
30174;DHT22;16985;50.814;8.530;2022-08-21T15:03:33;28.60;45.00
30174;DHT22;16985;50.814;8.530;2022-08-21T15:05:59;28.70;45.10
30174;DHT22;16985;50.814;8.530;2022-08-21T15:08:26;28.80;45.10
30174;DHT22;16985;50.814;8.530;2022-08-21T15:10:52;28.90;45.20
30174;DHT22;16985;50.814;8.530;2022-08-21T15:13:20;29.00;45.20
30174;DHT22;16985;50.814;8.530;2022-08-21T15:15:48;29.10;45.40
30174;DHT22;16985;50.814;8.530;2022-08-21T15:18:18;29.30;45.20
30174;DHT22;16985;50.814;8.530;2022-08-21T15:20:45;29.40;44.80
30174;DHT22;16985;50.814;8.530;2022-08-21T15:23:11;29.50;44.10
30174;DHT22;16985;50.814;8.530;2022-08-21T15:25:40;29.60;43.80
30174;DHT22;16985;50.814;8.530;2022-08-21T15:28:07;29.70;43.20
30174;DHT22;16985;50.814;8.530;2022-08-21T15:30:33;29.80;42.90
30174;DHT22;16985;50.814;8.530;2022-08-21T15:33:02;30.00;43.20
30174;DHT22;16985;50.814;8.530;2022-08-21T15:35:28;29.90;42.80
30174;DHT22;16985;50.814;8.530;2022-08-21T15:37:53;30.00;42.00
30174;DHT22;16985;50.814;8.530;2022-08-21T15:40:19;30.00;41.80
30174;DHT22;16985;50.814;8.530;2022-08-21T15:42:45;30.10;42.60
30174;DHT22;16985;50.814;8.530;2022-08-21T15:45:12;30.00;42.20
30174;DHT22;16985;50.814;8.530;2022-08-21T15:47:43;30.00;42.40
30174;DHT22;16985;50.814;8.530;2022-08-21T15:50:11;29.90;41.70
30174;DHT22;16985;50.814;8.530;2022-08-21T15:52:38;30.00;41.60
30174;DHT22;16985;50.814;8.530;2022-08-21T15:55:05;29.90;41.60
30174;DHT22;16985;50.814;8.530;2022-08-21T15:57:32;29.90;41.80
30174;DHT22;16985;50.814;8.530;2022-08-21T16:00:03;29.90;42.00
30174;DHT22;16985;50.814;8.530;2022-08-21T16:02:42;29.80;42.50
30174;DHT22;16985;50.814;8.530;2022-08-21T16:05:11;29.60;42.90
30174;DHT22;16985;50.814;8.530;2022-08-21T16:07:38;29.60;42.70
30174;DHT22;16985;50.814;8.530;2022-08-21T16:10:05;29.50;42.30
30174;DHT22;16985;50.814;8.530;2022-08-21T16:12:34;29.40;42.50
30174;DHT22;16985;50.814;8.530;2022-08-21T16:15:06;29.30;43.10
30174;DHT22;16985;50.814;8.530;2022-08-21T16:17:35;29.10;43.00
30174;DHT22;16985;50.814;8.530;2022-08-21T16:20:06;29.00;43.00
30174;DHT22;16985;50.814;8.530;2022-08-21T16:22:33;28.90;43.00
30174;DHT22;16985;50.814;8.530;2022-08-21T16:24:59;28.80;43.40
30174;DHT22;16985;50.814;8.530;2022-08-21T16:27:25;28.70;43.60
30174;DHT22;16985;50.814;8.530;2022-08-21T16:29:51;28.50;43.30
30174;DHT22;16985;50.814;8.530;2022-08-21T16:32:17;28.50;43.60
30174;DHT22;16985;50.814;8.530;2022-08-21T16:34:47;28.40;43.80
30174;DHT22;16985;50.814;8.530;2022-08-21T16:37:15;28.30;43.90
30174;DHT22;16985;50.814;8.530;2022-08-21T16:39:41;28.20;44.20
30174;DHT22;16985;50.814;8.530;2022-08-21T16:42:11;28.10;44.30
30174;DHT22;16985;50.814;8.530;2022-08-21T16:44:38;28.00;44.50
30174;DHT22;16985;50.814;8.530;2022-08-21T16:47:04;27.90;44.60
30174;DHT22;16985;50.814;8.530;2022-08-21T16:49:30;27.80;44.90
30174;DHT22;16985;50.814;8.530;2022-08-21T16:51:56;27.70;44.90
30174;DHT22;16985;50.814;8.530;2022-08-21T16:54:22;27.60;45.20
30174;DHT22;16985;50.814;8.530;2022-08-21T16:56:49;27.50;45.60
30174;DHT22;16985;50.814;8.530;2022-08-21T16:59:15;27.40;45.90
30174;DHT22;16985;50.814;8.530;2022-08-21T17:01:41;27.40;46.20
30174;DHT22;16985;50.814;8.530;2022-08-21T17:04:07;27.20;46.30
30174;DHT22;16985;50.814;8.530;2022-08-21T17:06:34;27.10;46.40